• Join FlightAware (Why Join?)
  • Login
  • US Flag 
07:24PM EST


 

Airport Tracker/Info


-or-


 

Live Flight TrackerFlight Track Log ✈ LYC499 ✈ 19-Jan-2010 ✈ MDSD / SDQ - KFPR

Flight Track Log - Related Links

Times and Time Zones

All times are in EST time to prevent confusion due to time zone crossing. See the LYC499 flight status page for this flight to view local times or setup timezone preferences in your user account.

Time Position Orientation Groundspeed Altitude Reporting Facility
EST Latitude Longitude Course Direction KTS MPH feet Rate Location/Type
08:09PM 19.2994 -69.6389 231° Southwest 24,000  Level Miami Center
08:10PM 19.0039 -69.9161 335° Northwest 15,500 -3,720 Descending Miami Center
08:11PM 19.0636 -69.9461 323° Northwest 262 302 16,600 960 Climbing Miami Center
08:12PM 19.1131 -69.9853 318° Northwest 242 278 17,500 840 Climbing Miami Center
08:13PM 19.1608 -70.0311 322° Northwest 232 267 18,300 780 Climbing Miami Center
08:14PM 19.2128 -70.0747 324° Northwest 232 267 19,100 780 Climbing Miami Center
08:15PM 19.2642 -70.1139 319° Northwest 232 267 19,900 780 Climbing Miami Center
08:16PM 19.3142 -70.1597 323° Northwest 237 273 20,700 720 Climbing Miami Center
08:17PM 19.3681 -70.2033 318° Northwest 237 273 21,400 660 Climbing Miami Center
08:18PM 19.4158 -70.2494 319° Northwest 237 273 22,100 540 Climbing Miami Center
08:19PM 19.4656 -70.2953 321° Northwest 237 273 22,600 540 Climbing Miami Center
08:20PM 19.5194 -70.3411 323° Northwest 242 278 23,200 480 Climbing Miami Center
08:21PM 19.5756 -70.3867 321° Northwest 242 278 23,600 360 Climbing Miami Center
08:22PM 19.6294 -70.4328 320° Northwest 247 284 24,000 240 Climbing Miami Center
08:23PM 19.6878 -70.4850 321° Northwest 253 291 24,100  Climbing Miami Center
08:24PM 19.7483 -70.5372 322° Northwest 268 308 24,000 -60 Descending Miami Center
08:25PM 19.8128 -70.5917 322° Northwest 287 330 24,000  Level Miami Center
08:26PM 19.8753 -70.6439 319° Northwest 287 330 24,000  Level Miami Center
08:27PM 19.9403 -70.7047 322° Northwest 298 343 24,000  Level Miami Center
08:28PM 20.0050 -70.7592 322° Northwest 298 343 24,000  Level Miami Center
08:29PM 20.0739 -70.8158 319° Northwest 298 343 24,000  Level Miami Center
08:30PM 20.1386 -70.8747 321° Northwest 303 349 24,000  Level Miami Center
08:31PM 20.2033 -70.9314 321° Northwest 303 349 24,000  Level Miami Center
08:32PM 20.2614 -70.9819 320° Northwest 303 349 24,000  Level Miami Center
08:33PM 20.3261 -71.0389 320° Northwest 303 349 24,000  Level Miami Center
08:34PM 20.3928 -71.0981 315° West 303 349 24,000  Level Miami Center
08:35PM 20.4514 -71.1597 313° West 298 343 24,000  Level Miami Center
08:36PM 20.5058 -71.2217 311° West 298 343 24,000  Level Miami Center
08:37PM 20.5603 -71.2881 313° West 298 343 24,000  Level Miami Center
08:38PM 20.6167 -71.3522 311° West 298 343 24,000  Level Miami Center
08:39PM 20.6714 -71.4186 313° West 303 349 24,000  Level Miami Center
08:40PM 20.7256 -71.4808 313° West 298 343 24,000  Level Miami Center
08:41PM 20.7819 -71.5450 311° West 298 343 24,000  Level Miami Center
08:42PM 20.8364 -71.6117 312° West 298 343 24,000  Level Miami Center
08:43PM 20.8908 -71.6761 311° West 298 343 24,000  Level Miami Center
08:44PM 20.9428 -71.7408 313° West 298 343 24,000  Level Miami Center
08:45PM 20.9992 -71.8053 313° West 298 343 24,000  Level Miami Center
08:46PM 21.0533 -71.8678 311° West 293 337 24,000  Level Miami Center
08:47PM 21.1078 -71.9344 313° West 293 337 24,000  Level Miami Center
08:48PM 21.1642 -71.9992 311° West 293 337 24,000  Level Miami Center
08:49PM 21.2161 -72.0642 313° West 293 337 24,000  Level Miami Center
08:50PM 21.2725 -72.1289 310° West 293 337 24,000  Level Miami Center
08:51PM 21.3244 -72.1961 314° West 293 337 24,000  Level Miami Center
08:52PM 21.3828 -72.2608 312° West 293 337 24,000  Level Miami Center
08:53PM 21.4369 -72.3258 312° West 293 337 24,000  Level Miami Center
08:54PM 21.4975 -72.3975 311° West 293 337 24,000  Level Miami Center
08:55PM 21.5517 -72.4647 311° West 298 343 24,000  Level Miami Center
08:56PM 21.6056 -72.5322 311° West 298 343 24,000  Level Miami Center
08:57PM 21.6575 -72.5975 313° West 298 343 24,000  Level Miami Center
08:58PM 21.7136 -72.6628 312° West 298 343 24,000  Level Miami Center
08:59PM 21.7567 -72.7150 312° West 293 337 24,000  Level Miami Center
09:00PM 21.8214 -72.7933 310° West 293 337 24,000  Level Miami Center
09:01PM 21.8733 -72.8589 313° West 293 337 24,000  Level Miami Center
09:02PM 21.9294 -72.9244 313° West 293 337 24,000  Level Miami Center
09:03PM 21.9853 -72.9897 309° West 293 337 24,000  Level Miami Center
09:04PM 22.0372 -73.0578 312° West 293 337 24,000  Level Miami Center
09:05PM 22.0908 -73.1211 311° West 293 337 24,000  Level Miami Center
09:06PM 22.1447 -73.1892 311° West 293 337 24,000  Level Miami Center
09:07PM 22.1964 -73.2525 310° West 293 337 24,000  Level Miami Center
09:08PM 22.2503 -73.3208 313° West 293 337 24,000  Level Miami Center
09:09PM 22.3058 -73.3842 312° West 298 343 24,000  Level Miami Center
09:10PM 22.3617 -73.4503 310° West 298 343 24,000  Level Miami Center
09:11PM 22.4111 -73.5139 312° West 293 337 24,000  Level Miami Center
09:12PM 22.4669 -73.5800 311° West 293 337 24,000  Level Miami Center
09:13PM 22.5183 -73.6439 313° West 293 337 24,000  Level Miami Center
09:14PM 22.5742 -73.7078 309° West 293 337 24,000  Level Miami Center
09:15PM 22.6233 -73.7739 312° West 293 337 24,000  Level Miami Center
09:16PM 22.6769 -73.8381 310° West 293 337 24,000  Level Miami Center
09:17PM 22.7283 -73.9044 312° West 293 337 24,000  Level Miami Center
09:18PM 22.7819 -73.9683 311° West 293 337 24,000  Level Miami Center
09:19PM 22.8333 -74.0328 310° West 293 337 24,000  Level Miami Center
09:20PM 22.8844 -74.0992 311° West 293 337 24,000  Level Miami Center
09:21PM 22.9358 -74.1633 312° West 288 331 24,000  Level Miami Center
09:22PM 22.9892 -74.2278 310° West 288 331 24,000  Level Miami Center
09:23PM 23.0364 -74.2900 312° West 283 326 24,000  Level Miami Center
09:24PM 23.0897 -74.3544 312° West 283 326 24,000  Level Miami Center
09:25PM 23.1408 -74.4167 310° West 283 326 24,000  Level Miami Center
09:26PM 23.1897 -74.4811 313° West 278 320 24,000  Level Miami Center
09:27PM 23.2408 -74.5414 310° West 278 320 24,000  Level Miami Center
09:28PM 23.2836 -74.5972 310° West 278 320 24,000  Level Miami Center
09:29PM 23.3325 -74.6597 313° West 278 320 24,000  Level Miami Center
09:30PM 23.3856 -74.7219 310° West 278 320 24,000  Level Miami Center
09:31PM 23.4325 -74.7825 311° West 278 320 24,000  Level Miami Center
09:32PM 23.4814 -74.8428 311° West 278 320 24,000  Level Miami Center
09:33PM 23.5217 -74.8942 311° West 278 320 24,000  Level Miami Center
09:34PM 23.5811 -74.9681 312° West 278 320 24,000  Level Miami Center
09:35PM 23.6217 -75.0175 310° West 278 320 24,000  Level Miami Center
09:36PM 23.6811 -75.0936 311° West 278 320 24,000  Level Miami Center
09:37PM 23.7319 -75.1564 309° West 278 320 24,000  Level Miami Center
09:38PM 23.7869 -75.2308 312° West 278 320 24,000  Level Miami Center
09:39PM 23.8272 -75.2803 310° West 278 320 24,000  Level Miami Center
09:40PM 23.8867 -75.3567 312° West 278 320 24,000  Level Miami Center
09:41PM 23.9394 -75.4197 309° West 278 320 24,000  Level Miami Center
09:42PM 23.9881 -75.4850 312° West 278 320 24,000  Level Miami Center
09:43PM 24.0408 -75.5483 310° West 278 320 24,000  Level Miami Center
09:44PM 24.0894 -75.6114 311° West 278 320 24,000  Level Miami Center
09:45PM 24.1403 -75.6747 309° West 278 320 24,000  Level Miami Center
09:46PM 24.1889 -75.7403 310° West 278 320 24,000  Level Miami Center
09:47PM 24.2372 -75.8036 311° West 278 320 24,000  Level Miami Center
09:48PM 24.2881 -75.8669 311° West 278 320 24,000  Level Miami Center
09:49PM 24.3364 -75.9283 311° West 278 320 24,000  Level Miami Center
09:50PM 24.3869 -75.9917 310° West 278 320 24,000  Level Miami Center
09:51PM 24.4353 -76.0553 311° West 278 320 24,000  Level Miami Center
09:52PM 24.4836 -76.1167 309° West 278 320 24,000  Level Miami Center
09:53PM 24.5322 -76.1825 310° West 278 320 24,000  Level Miami Center
09:54PM 24.5806 -76.2464 310° West 278 320 24,000  Level Miami Center
09:55PM 24.6225 -76.3011 309° West 278 320 24,000  Level Miami Center
09:56PM 24.6686 -76.3647 312° West 273 314 24,000  Level Miami Center
09:57PM 24.7192 -76.4264 310° West 273 314 24,000  Level Miami Center
09:58PM 24.7672 -76.4903 310° West 273 314 24,000  Level Miami Center
09:59PM 24.8156 -76.5542 312° West 278 320 24,000  Level Miami Center
10:00PM 24.8658 -76.6161 310° West 278 320 24,000  Level Miami Center
10:01PM 24.9139 -76.6800 312° West 278 320 24,000  Level Miami Center
10:02PM 24.9642 -76.7419 310° West 278 320 24,000  Level Miami Center
10:03PM 25.0103 -76.8036 310° West 278 320 24,000  Level Miami Center
10:04PM 25.0603 -76.8703 312° West 278 320 24,000  Level Miami Center
10:05PM 25.1083 -76.9300 309° West 278 320 24,000  Level Miami Center
10:06PM 25.1564 -76.9967 311° West 278 320 24,000  Level Miami Center
10:07PM 25.2044 -77.0586 311° West 278 320 24,000  Level Miami Center
10:08PM 25.2544 -77.1231 308° West 278 320 24,000  Level Miami Center
10:09PM 25.3003 -77.1875 311° West 278 320 24,000  Level Miami Center
10:10PM 25.3503 -77.2519 310° West 278 320 24,000  Level Miami Center
10:11PM 25.3983 -77.3142 310° West 278 320 24,000  Level Miami Center
10:12PM 25.4461 -77.3767 308° West 278 320 24,000  Level Miami Center
10:13PM 25.4919 -77.4411 310° West 278 320 24,000  Level Miami Center
10:14PM 25.5439 -77.5106 309° West 278 320 24,000  Level Miami Center
10:15PM 25.5917 -77.5753 312° West 278 320 24,000  Level Miami Center
10:16PM 25.6436 -77.6403 308° West 278 320 24,000  Level Miami Center
10:17PM 25.6892 -77.7050 310° West 278 320 24,000  Level Miami Center
10:18PM 25.7472 -77.7817 310° West 278 320 24,000  Level Miami Center
10:19PM 25.7947 -77.8444 309° West 278 320 24,000  Level Miami Center
10:20PM 25.8444 -77.9117 310° West 278 320 24,000  Level Miami Center
10:21PM 25.8922 -77.9744 307° West 278 320 24,000  Level Miami Center
10:22PM 25.9375 -78.0419 312° West 278 320 24,000  Level Miami Center
10:23PM 25.9872 -78.1025 309° West 278 320 24,000  Level Miami Center
10:24PM 26.0347 -78.1678 309° West 278 320 24,000  Level Miami Center
10:25PM 26.0822 -78.2331 310° West 278 320 24,000  Level Miami Center
10:26PM 26.1317 -78.2983 305° West 278 320 24,000  Level Miami Center
10:27PM 26.1750 -78.3661 312° West 278 320 24,000  Level Miami Center
10:28PM 26.2264 -78.4292 309° West 278 320 24,000  Level Miami Center
10:29PM 26.2717 -78.4925 311° West 272 313 24,000  Level Miami Center
10:30PM 26.3211 -78.5558 307° West 272 313 24,000  Level Miami Center
10:31PM 26.3642 -78.6189 310° West 261 300 24,000  Level Miami Center
10:32PM 26.4117 -78.6822 311° West 261 300 24,000  Level Miami Center
10:33PM 26.4608 -78.7456 308° West 267 307 24,000 -660 Level Miami Center
10:34PM 26.5061 -78.8114 311° West 272 313 22,700 -1,500 Descending Miami Center
10:35PM 26.5553 -78.8750 313° West 272 313 21,100 -1,440 Descending Miami Center
10:36PM 26.6128 -78.9433 312° West 282 325 19,800 -1,200 Descending Miami Center
10:37PM 26.6619 -79.0047 310° West 282 325 18,700 -1,020 Descending Miami Center
10:38PM 26.7133 -79.0731 309° West 282 325 17,800 -840 Descending Miami Center
10:39PM 26.7583 -79.1344 312° West 282 325 17,100 -1,020 Descending Miami Center
10:40PM 26.8114 -79.2006 310° West 282 325 15,800 -1,380 Descending Miami Center
10:41PM 26.8686 -79.2761 312° West 282 325 14,300 -1,320 Descending Miami Center
10:42PM 26.9219 -79.3425 311° West 288 331 13,300 -1,020 Descending Miami Center
10:43PM 26.9731 -79.4089 312° West 283 326 12,300 -1,020 Descending Miami Center
10:44PM 27.0200 -79.4683 312° West 283 326 11,300 -960 Descending Miami Center
10:45PM 27.0772 -79.5394 310° West 283 326 10,400 -960 Descending Miami Center
10:46PM 27.1261 -79.6058 310° West 277 319 9,400 -900 Descending Miami Center
10:47PM 27.1750 -79.6725 311° West 282 325 8,700 -660 Descending Miami Center
10:48PM 27.2197 -79.7297 312° West 277 319 8,100 -840 Descending Miami Center
10:49PM 27.2686 -79.7917 312° West 277 319 7,000 -1,140 Descending Miami Center
10:50PM 27.3194 -79.8561 310° West 257 296 5,800 -1,380 Descending Miami Center
10:51PM 27.3642 -79.9156 311° West 257 296 4,400 -1,380 Descending Miami Center
10:52PM 27.4089 -79.9731 311° West 251 289 3,100 -1,200 Descending Miami Center
10:53PM 27.4494 -80.0256 310° West 243 280 2,100 -600 Descending Miami Center
10:54PM 27.4919 -80.0831 311° West 243 280 1,900 -60 Descending Miami Center
10:55PM 27.5367 -80.1403 268° West 231 266 2,000  Climbing Miami Center
10:56PM 27.5356 -80.1872 257° West 209 241 2,000 -60 Level Miami Center
10:57PM 27.5239 -80.2453 250° West 171 197 1,900 -300 Descending Miami Center
10:58PM 27.5125 -80.2803 250° West 148 170 1,500 -420 Descending Miami Center